createdAt,value
2023-03-26T00:02:42.681Z,11.77
2023-03-26T00:07:44.740Z,11.68
2023-03-26T00:12:47.213Z,11.85
2023-03-26T00:17:49.480Z,11.77
2023-03-26T00:22:51.700Z,11.73
2023-03-26T00:27:54.165Z,11.58
2023-03-26T00:32:55.990Z,11.63
2023-03-26T00:37:58.157Z,11.36
2023-03-26T00:42:59.962Z,11.31
2023-03-26T00:48:02.839Z,11.19
2023-03-26T00:53:05.308Z,11.18
2023-03-26T00:58:07.854Z,11.06
2023-03-26T01:03:26.621Z,10.97
2023-03-26T01:08:39.579Z,10.84
2023-03-26T01:13:54.304Z,10.89
2023-03-26T01:18:56.477Z,10.84
2023-03-26T01:24:02.259Z,10.62
2023-03-26T01:29:05.759Z,9.80
2023-03-26T01:34:18.621Z,9.20
2023-03-26T01:39:38.219Z,8.95
2023-03-26T01:44:55.371Z,8.80
2023-03-26T01:49:57.657Z,8.74
2023-03-26T01:54:59.970Z,8.57
2023-03-26T02:00:01.789Z,8.52
2023-03-26T02:05:20.686Z,8.71
2023-03-26T02:10:29.636Z,8.90
2023-03-26T02:15:31.553Z,9.00
2023-03-26T02:20:33.570Z,9.13
2023-03-26T02:25:35.297Z,9.23
2023-03-26T02:30:37.428Z,9.35
2023-03-26T02:35:39.307Z,9.42
2023-03-26T02:40:42.099Z,9.35
2023-03-26T02:45:44.271Z,9.32
2023-03-26T02:51:14.287Z,9.33
2023-03-26T02:56:28.930Z,9.23
2023-03-26T03:01:58.133Z,9.28
2023-03-26T03:06:59.817Z,9.32
2023-03-26T03:12:02.190Z,9.33
2023-03-26T03:17:03.987Z,9.33
2023-03-26T03:22:06.094Z,9.34
2023-03-26T03:27:10.127Z,9.31
2023-03-26T03:32:16.974Z,9.46
2023-03-26T03:37:21.990Z,9.50
2023-03-26T03:42:27.724Z,9.56
2023-03-26T03:47:32.581Z,9.59
2023-03-26T03:52:34.809Z,9.53
2023-03-26T03:57:36.642Z,9.52
2023-03-26T04:02:43.459Z,9.52
2023-03-26T04:07:45.902Z,9.43
2023-03-26T04:13:07.877Z,9.38
2023-03-26T04:18:27.891Z,9.27
2023-03-26T04:23:32.462Z,9.25
2023-03-26T04:28:50.379Z,9.13
2023-03-26T04:34:04.078Z,8.98
2023-03-26T04:39:07.073Z,9.02
2023-03-26T04:44:27.729Z,8.98
2023-03-26T04:49:35.857Z,9.06
2023-03-26T04:54:38.777Z,9.05
2023-03-26T04:59:45.678Z,9.09
2023-03-26T05:04:49.257Z,9.12
2023-03-26T05:09:52.395Z,9.05
2023-03-26T05:15:17.685Z,8.97
2023-03-26T05:20:41.090Z,8.98
2023-03-26T05:25:45.113Z,8.99
2023-03-26T05:30:53.111Z,9.06
2023-03-26T05:36:03.223Z,9.12
2023-03-26T05:41:09.557Z,9.16
2023-03-26T05:46:15.974Z,9.09
2023-03-26T05:51:18.572Z,9.00
2023-03-26T05:56:32.955Z,9.03
2023-03-26T06:01:53.175Z,9.09
2023-03-26T06:07:14.162Z,9.14
2023-03-26T06:12:20.402Z,9.02
2023-03-26T06:17:22.715Z,9.03
2023-03-26T06:22:49.018Z,9.05
2023-03-26T06:27:55.626Z,9.04
2023-03-26T06:33:09.564Z,9.00
2023-03-26T06:38:18.529Z,9.06
2023-03-26T06:43:20.876Z,9.02
2023-03-26T06:48:42.937Z,9.11
2023-03-26T06:54:03.541Z,9.07
2023-03-26T06:59:34.672Z,9.14
2023-03-26T07:05:03.466Z,9.11
2023-03-26T07:10:23.958Z,9.01
2023-03-26T07:15:46.153Z,8.94
2023-03-26T07:20:57.354Z,8.93
2023-03-26T07:26:23.158Z,9.03
2023-03-26T07:31:59.503Z,9.04
2023-03-26T07:37:32.194Z,8.99
2023-03-26T07:43:30.754Z,9.04
2023-03-26T07:48:46.047Z,9.04
2023-03-26T07:54:07.268Z,8.94
2023-03-26T07:59:53.082Z,8.98
2023-03-26T08:05:31.145Z,8.98
2023-03-26T08:11:31.422Z,9.01
2023-03-26T08:17:31.260Z,9.02
2023-03-26T08:22:42.030Z,9.15
2023-03-26T08:27:55.645Z,9.12
2023-03-26T08:33:12.925Z,9.04
2023-03-26T08:38:16.977Z,9.13
2023-03-26T08:43:46.638Z,9.12
2023-03-26T08:49:29.764Z,9.14
2023-03-26T08:54:47.220Z,9.16
2023-03-26T09:00:16.720Z,8.98
2023-03-26T09:05:43.175Z,8.78
2023-03-26T09:10:52.463Z,8.83
2023-03-26T09:16:29.466Z,8.64
2023-03-26T09:21:43.230Z,8.51
2023-03-26T09:27:08.690Z,8.51
2023-03-26T09:32:41.516Z,8.41
2023-03-26T09:37:58.631Z,8.32
2023-03-26T09:43:32.966Z,8.36
2023-03-26T09:48:42.877Z,8.53
2023-03-26T09:54:09.444Z,8.57
2023-03-26T09:59:44.863Z,8.81
2023-03-26T10:05:17.361Z,8.93
2023-03-26T10:11:16.506Z,9.21
2023-03-26T10:17:11.778Z,9.57
2023-03-26T10:22:44.227Z,9.87
2023-03-26T10:28:09.734Z,9.78
2023-03-26T10:33:54.509Z,9.91
2023-03-26T10:39:35.878Z,9.61
2023-03-26T10:44:56.001Z,9.67
2023-03-26T10:50:25.281Z,9.73
2023-03-26T10:55:40.806Z,9.94
2023-03-26T11:00:53.431Z,10.12
2023-03-26T11:06:23.365Z,10.00
2023-03-26T11:11:40.298Z,10.27
2023-03-26T11:16:47.848Z,10.35
2023-03-26T11:22:04.950Z,10.37
2023-03-26T11:27:49.037Z,10.27
2023-03-26T11:33:16.847Z,10.14
2023-03-26T11:38:28.607Z,10.38
2023-03-26T11:43:35.384Z,10.28
2023-03-26T11:48:40.339Z,10.16
2023-03-26T11:53:41.871Z,10.31
2023-03-26T11:58:51.001Z,10.37
2023-03-26T12:04:11.180Z,10.27
2023-03-26T12:09:20.043Z,9.77
2023-03-26T12:14:27.098Z,9.75
2023-03-26T12:19:35.295Z,9.86
2023-03-26T12:24:36.990Z,10.26
2023-03-26T12:29:38.532Z,10.26
2023-03-26T12:34:42.252Z,10.13
2023-03-26T12:40:08.609Z,10.06
2023-03-26T12:45:06.735Z,10.31
2023-03-26T12:50:13.716Z,10.16
2023-03-26T12:55:35.777Z,10.32
2023-03-26T13:01:10.825Z,10.56
2023-03-26T13:07:04.992Z,10.41
2023-03-26T13:12:34.170Z,10.36
2023-03-26T13:18:07.058Z,10.48
2023-03-26T13:23:22.473Z,10.18
2023-03-26T13:29:02.723Z,10.30
2023-03-26T13:34:25.833Z,10.43
2023-03-26T13:39:51.843Z,10.22
2023-03-26T13:45:18.273Z,10.20
2023-03-26T13:50:25.656Z,10.00
2023-03-26T13:55:45.852Z,9.92
2023-03-26T14:00:55.012Z,10.29
2023-03-26T14:06:04.896Z,10.16
2023-03-26T14:11:22.165Z,10.26
2023-03-26T14:16:30.417Z,10.16
2023-03-26T14:21:56.611Z,10.26
2023-03-26T14:27:01.246Z,10.20
2023-03-26T14:32:14.710Z,10.40
2023-03-26T14:38:13.654Z,10.57
2023-03-26T14:43:23.909Z,10.88
2023-03-26T14:48:41.101Z,11.31
2023-03-26T14:53:48.308Z,11.39
2023-03-26T14:59:20.982Z,11.95
2023-03-26T15:04:56.527Z,12.17
2023-03-26T15:10:14.193Z,12.48
2023-03-26T15:15:53.996Z,12.34
2023-03-26T15:21:15.261Z,12.08
2023-03-26T15:26:28.996Z,11.69
2023-03-26T15:32:04.787Z,11.85
2023-03-26T15:37:28.731Z,12.00
2023-03-26T15:42:43.565Z,11.94
2023-03-26T15:48:11.361Z,11.53
2023-03-26T15:53:19.594Z,11.34
2023-03-26T15:58:49.841Z,11.29
2023-03-26T16:03:57.251Z,10.73
2023-03-26T16:09:25.316Z,10.88
2023-03-26T16:14:36.179Z,10.58
2023-03-26T16:19:37.909Z,10.57
2023-03-26T16:25:26.903Z,10.49
2023-03-26T16:30:32.556Z,10.33
2023-03-26T16:35:52.596Z,10.29
2023-03-26T16:41:00.139Z,10.19
2023-03-26T16:46:27.969Z,10.12
2023-03-26T16:51:42.760Z,9.95
2023-03-26T16:57:05.607Z,9.93
2023-03-26T17:02:31.908Z,9.77
2023-03-26T17:07:47.737Z,9.79
2023-03-26T17:13:01.206Z,9.75
2023-03-26T17:18:21.304Z,9.66
2023-03-26T17:24:01.912Z,9.67
2023-03-26T17:29:18.835Z,9.66
2023-03-26T17:34:38.469Z,9.65
2023-03-26T17:39:39.960Z,9.55
2023-03-26T17:44:45.825Z,9.51
2023-03-26T17:49:51.169Z,9.51
2023-03-26T17:54:55.943Z,9.32
2023-03-26T17:59:59.527Z,9.23
2023-03-26T18:05:03.485Z,9.24
2023-03-26T18:10:35.712Z,9.12
2023-03-26T18:15:57.309Z,9.09
2023-03-26T18:21:02.455Z,9.00
2023-03-26T18:26:15.805Z,9.11
2023-03-26T18:31:25.532Z,9.20
2023-03-26T18:36:27.718Z,9.15
2023-03-26T18:41:34.678Z,9.13
2023-03-26T18:46:36.585Z,9.06
2023-03-26T18:51:46.384Z,9.05
2023-03-26T18:56:55.918Z,9.01
2023-03-26T19:02:03.640Z,8.95
2023-03-26T19:07:11.630Z,8.80
2023-03-26T19:12:20.252Z,8.74
2023-03-26T19:17:23.728Z,8.70
2023-03-26T19:22:26.196Z,8.69
2023-03-26T19:27:28.222Z,8.65
2023-03-26T19:32:31.796Z,8.58
2023-03-26T19:37:33.442Z,8.52
2023-03-26T19:42:43.899Z,8.49
2023-03-26T19:47:54.735Z,8.51
2023-03-26T19:53:16.149Z,8.46
2023-03-26T19:58:18.866Z,8.41
2023-03-26T20:03:29.318Z,8.36
2023-03-26T20:08:31.069Z,8.44
2023-03-26T20:13:32.773Z,8.55
2023-03-26T20:18:34.982Z,8.46
2023-03-26T20:23:36.501Z,8.38
2023-03-26T20:28:47.322Z,8.46
2023-03-26T20:33:51.146Z,8.50
2023-03-26T20:38:52.908Z,8.50
2023-03-26T20:43:54.830Z,8.51
2023-03-26T20:48:56.948Z,8.54
2023-03-26T20:53:58.685Z,8.56
2023-03-26T20:59:10.635Z,8.47
2023-03-26T21:04:14.139Z,8.37
2023-03-26T21:09:19.526Z,8.32
2023-03-26T21:14:27.623Z,8.22
2023-03-26T21:19:29.886Z,8.21
2023-03-26T21:24:58.363Z,8.31
2023-03-26T21:30:00.313Z,8.14
2023-03-26T21:35:02.237Z,8.03
2023-03-26T21:40:04.553Z,7.99
2023-03-26T21:45:07.640Z,7.96
2023-03-26T21:50:12.523Z,8.02
2023-03-26T21:55:20.071Z,7.88
2023-03-26T22:00:30.781Z,7.83
2023-03-26T22:05:42.447Z,7.75
2023-03-26T22:10:43.955Z,7.80
2023-03-26T22:15:45.683Z,7.73
2023-03-26T22:20:48.542Z,7.69
2023-03-26T22:25:50.190Z,7.73
2023-03-26T22:30:51.933Z,7.55
2023-03-26T22:35:55.560Z,7.37
2023-03-26T22:40:57.995Z,7.27
2023-03-26T22:45:59.772Z,7.19
2023-03-26T22:51:05.154Z,7.10
2023-03-26T22:56:07.389Z,6.97
2023-03-26T23:01:14.086Z,6.69
2023-03-26T23:06:15.822Z,6.27
2023-03-26T23:11:19.758Z,6.13
2023-03-26T23:16:21.438Z,6.14
2023-03-26T23:21:23.196Z,6.06
2023-03-26T23:26:24.764Z,5.89
2023-03-26T23:31:26.832Z,5.77
2023-03-26T23:36:28.373Z,5.63
2023-03-26T23:41:29.932Z,5.59
2023-03-26T23:46:31.545Z,5.43
2023-03-26T23:51:33.524Z,5.39
2023-03-26T23:56:35.097Z,5.28
